sensor_id;sensor_type;location;lat;lon;timestamp;P1;durP1;ratioP1;P2;durP2;ratioP2
7845;SDS011;3968;51.424;6.788;2022-09-09T00:02:18;2.07;;;1.20;;
7845;SDS011;3968;51.424;6.788;2022-09-09T00:04:48;3.77;;;1.27;;
7845;SDS011;3968;51.424;6.788;2022-09-09T00:07:25;3.57;;;1.43;;
7845;SDS011;3968;51.424;6.788;2022-09-09T00:15:29;3.97;;;1.30;;
7845;SDS011;3968;51.424;6.788;2022-09-09T00:18:13;3.13;;;1.50;;
7845;SDS011;3968;51.424;6.788;2022-09-09T00:21:07;2.20;;;1.50;;
7845;SDS011;3968;51.424;6.788;2022-09-09T00:23:44;2.83;;;1.10;;
7845;SDS011;3968;51.424;6.788;2022-09-09T00:26:38;4.30;;;1.40;;
7845;SDS011;3968;51.424;6.788;2022-09-09T00:32:12;3.80;;;1.43;;
7845;SDS011;3968;51.424;6.788;2022-09-09T00:34:53;5.77;;;1.60;;
7845;SDS011;3968;51.424;6.788;2022-09-09T00:37:41;3.13;;;1.70;;
7845;SDS011;3968;51.424;6.788;2022-09-09T00:40:30;3.33;;;1.73;;
7845;SDS011;3968;51.424;6.788;2022-09-09T00:43:03;6.50;;;1.60;;
7845;SDS011;3968;51.424;6.788;2022-09-09T00:57:30;3.53;;;1.63;;
7845;SDS011;3968;51.424;6.788;2022-09-09T00:59:57;2.10;;;1.37;;
7845;SDS011;3968;51.424;6.788;2022-09-09T01:02:45;3.73;;;1.70;;
7845;SDS011;3968;51.424;6.788;2022-09-09T01:10:59;2.27;;;1.27;;
7845;SDS011;3968;51.424;6.788;2022-09-09T01:13:31;3.60;;;1.60;;
7845;SDS011;3968;51.424;6.788;2022-09-09T01:16:00;1.83;;;1.43;;
7845;SDS011;3968;51.424;6.788;2022-09-09T01:18:33;7.50;;;1.80;;
7845;SDS011;3968;51.424;6.788;2022-09-09T01:21:16;2.67;;;1.80;;
7845;SDS011;3968;51.424;6.788;2022-09-09T01:26:44;4.37;;;1.73;;
7845;SDS011;3968;51.424;6.788;2022-09-09T01:29:14;4.30;;;1.40;;
7845;SDS011;3968;51.424;6.788;2022-09-09T01:31:51;4.33;;;2.10;;
7845;SDS011;3968;51.424;6.788;2022-09-09T01:34:18;4.17;;;1.70;;
7845;SDS011;3968;51.424;6.788;2022-09-09T01:39:10;4.70;;;1.90;;
7845;SDS011;3968;51.424;6.788;2022-09-09T01:41:37;5.93;;;2.00;;
7845;SDS011;3968;51.424;6.788;2022-09-09T01:44:03;2.80;;;1.90;;
7845;SDS011;3968;51.424;6.788;2022-09-09T01:46:29;4.20;;;1.83;;
7845;SDS011;3968;51.424;6.788;2022-09-09T01:48:55;2.57;;;1.63;;
7845;SDS011;3968;51.424;6.788;2022-09-09T01:51:23;8.63;;;2.10;;
7845;SDS011;3968;51.424;6.788;2022-09-09T01:53:49;4.50;;;1.87;;
7845;SDS011;3968;51.424;6.788;2022-09-09T01:56:21;2.93;;;1.80;;
7845;SDS011;3968;51.424;6.788;2022-09-09T02:01:56;5.40;;;1.90;;
7845;SDS011;3968;51.424;6.788;2022-09-09T02:07:16;5.13;;;2.23;;
7845;SDS011;3968;51.424;6.788;2022-09-09T02:09:56;3.23;;;2.27;;
7845;SDS011;3968;51.424;6.788;2022-09-09T02:12:26;4.47;;;2.37;;
7845;SDS011;3968;51.424;6.788;2022-09-09T02:15:00;3.10;;;2.20;;
7845;SDS011;3968;51.424;6.788;2022-09-09T02:17:31;2.90;;;1.87;;
7845;SDS011;3968;51.424;6.788;2022-09-09T02:20:08;4.40;;;1.77;;
7845;SDS011;3968;51.424;6.788;2022-09-09T02:22:39;3.20;;;2.00;;
7845;SDS011;3968;51.424;6.788;2022-09-09T02:25:10;6.67;;;2.20;;
7845;SDS011;3968;51.424;6.788;2022-09-09T02:27:39;3.53;;;1.73;;
7845;SDS011;3968;51.424;6.788;2022-09-09T02:30:08;3.53;;;1.50;;
7845;SDS011;3968;51.424;6.788;2022-09-09T02:32:35;6.47;;;1.70;;
7845;SDS011;3968;51.424;6.788;2022-09-09T02:35:07;4.47;;;1.63;;
7845;SDS011;3968;51.424;6.788;2022-09-09T02:37:36;3.70;;;1.90;;
7845;SDS011;3968;51.424;6.788;2022-09-09T02:40:04;4.17;;;1.70;;
7845;SDS011;3968;51.424;6.788;2022-09-09T02:42:34;4.37;;;1.93;;
7845;SDS011;3968;51.424;6.788;2022-09-09T02:45:05;3.20;;;1.90;;
7845;SDS011;3968;51.424;6.788;2022-09-09T02:47:34;7.77;;;1.90;;
7845;SDS011;3968;51.424;6.788;2022-09-09T02:50:17;3.00;;;2.10;;
7845;SDS011;3968;51.424;6.788;2022-09-09T02:55:52;3.40;;;1.77;;
7845;SDS011;3968;51.424;6.788;2022-09-09T02:58:23;6.67;;;2.03;;
7845;SDS011;3968;51.424;6.788;2022-09-09T03:00:49;3.63;;;1.90;;
7845;SDS011;3968;51.424;6.788;2022-09-09T03:03:16;3.77;;;1.93;;
7845;SDS011;3968;51.424;6.788;2022-09-09T03:05:43;5.83;;;2.00;;
7845;SDS011;3968;51.424;6.788;2022-09-09T03:08:09;7.23;;;2.33;;
7845;SDS011;3968;51.424;6.788;2022-09-09T03:10:36;5.23;;;2.23;;
7845;SDS011;3968;51.424;6.788;2022-09-09T03:13:02;5.53;;;2.40;;
7845;SDS011;3968;51.424;6.788;2022-09-09T03:15:30;5.23;;;2.43;;
7845;SDS011;3968;51.424;6.788;2022-09-09T03:17:56;4.00;;;2.20;;
7845;SDS011;3968;51.424;6.788;2022-09-09T03:20:23;3.80;;;2.50;;
7845;SDS011;3968;51.424;6.788;2022-09-09T03:22:51;7.63;;;2.33;;
7845;SDS011;3968;51.424;6.788;2022-09-09T03:25:18;6.83;;;2.50;;
7845;SDS011;3968;51.424;6.788;2022-09-09T03:27:44;5.40;;;2.27;;
7845;SDS011;3968;51.424;6.788;2022-09-09T03:30:10;7.00;;;2.23;;
7845;SDS011;3968;51.424;6.788;2022-09-09T03:32:36;4.97;;;2.50;;
7845;SDS011;3968;51.424;6.788;2022-09-09T03:35:01;5.93;;;2.10;;
7845;SDS011;3968;51.424;6.788;2022-09-09T03:37:27;4.80;;;2.30;;
7845;SDS011;3968;51.424;6.788;2022-09-09T03:39:53;6.70;;;2.50;;
7845;SDS011;3968;51.424;6.788;2022-09-09T03:42:19;4.10;;;2.43;;
7845;SDS011;3968;51.424;6.788;2022-09-09T03:44:46;9.27;;;2.60;;
7845;SDS011;3968;51.424;6.788;2022-09-09T03:47:14;5.07;;;2.53;;
7845;SDS011;3968;51.424;6.788;2022-09-09T03:49:41;8.17;;;4.80;;
7845;SDS011;3968;51.424;6.788;2022-09-09T03:52:08;7.00;;;3.20;;
7845;SDS011;3968;51.424;6.788;2022-09-09T03:54:34;5.90;;;2.60;;
7845;SDS011;3968;51.424;6.788;2022-09-09T03:57:00;7.77;;;2.70;;
7845;SDS011;3968;51.424;6.788;2022-09-09T03:59:26;6.97;;;3.13;;
7845;SDS011;3968;51.424;6.788;2022-09-09T04:01:52;6.87;;;2.47;;
7845;SDS011;3968;51.424;6.788;2022-09-09T04:04:18;5.10;;;2.80;;
7845;SDS011;3968;51.424;6.788;2022-09-09T04:06:44;5.77;;;2.33;;
7845;SDS011;3968;51.424;6.788;2022-09-09T04:09:11;5.77;;;2.63;;
7845;SDS011;3968;51.424;6.788;2022-09-09T04:11:36;7.10;;;2.80;;
7845;SDS011;3968;51.424;6.788;2022-09-09T04:14:02;8.23;;;2.70;;
7845;SDS011;3968;51.424;6.788;2022-09-09T04:16:30;4.03;;;2.67;;
7845;SDS011;3968;51.424;6.788;2022-09-09T04:18:57;6.40;;;2.87;;
7845;SDS011;3968;51.424;6.788;2022-09-09T04:21:26;7.23;;;2.77;;
7845;SDS011;3968;51.424;6.788;2022-09-09T04:23:52;8.17;;;2.60;;
7845;SDS011;3968;51.424;6.788;2022-09-09T04:26:17;5.43;;;2.50;;
7845;SDS011;3968;51.424;6.788;2022-09-09T04:28:43;6.40;;;2.80;;
7845;SDS011;3968;51.424;6.788;2022-09-09T04:31:16;5.20;;;2.67;;
7845;SDS011;3968;51.424;6.788;2022-09-09T04:33:45;8.87;;;2.87;;
7845;SDS011;3968;51.424;6.788;2022-09-09T04:36:11;9.30;;;2.83;;
7845;SDS011;3968;51.424;6.788;2022-09-09T04:38:37;5.43;;;2.87;;
7845;SDS011;3968;51.424;6.788;2022-09-09T04:41:03;4.83;;;2.50;;
7845;SDS011;3968;51.424;6.788;2022-09-09T04:43:29;10.07;;;2.77;;
7845;SDS011;3968;51.424;6.788;2022-09-09T04:45:55;3.97;;;2.30;;
7845;SDS011;3968;51.424;6.788;2022-09-09T04:48:21;9.27;;;2.70;;
7845;SDS011;3968;51.424;6.788;2022-09-09T04:51:00;3.70;;;1.97;;
7845;SDS011;3968;51.424;6.788;2022-09-09T04:53:28;4.83;;;2.30;;
7845;SDS011;3968;51.424;6.788;2022-09-09T04:56:11;7.07;;;2.50;;
7845;SDS011;3968;51.424;6.788;2022-09-09T04:58:38;8.90;;;2.40;;
7845;SDS011;3968;51.424;6.788;2022-09-09T05:01:07;7.47;;;2.30;;
7845;SDS011;3968;51.424;6.788;2022-09-09T05:03:43;4.83;;;2.30;;
7845;SDS011;3968;51.424;6.788;2022-09-09T05:06:11;6.90;;;2.47;;
7845;SDS011;3968;51.424;6.788;2022-09-09T05:08:39;5.97;;;2.33;;
7845;SDS011;3968;51.424;6.788;2022-09-09T05:13:41;6.67;;;2.50;;
7845;SDS011;3968;51.424;6.788;2022-09-09T05:16:07;7.20;;;2.50;;
7845;SDS011;3968;51.424;6.788;2022-09-09T05:18:36;5.50;;;2.50;;
7845;SDS011;3968;51.424;6.788;2022-09-09T05:21:05;7.93;;;2.60;;
7845;SDS011;3968;51.424;6.788;2022-09-09T05:23:31;7.07;;;2.23;;
7845;SDS011;3968;51.424;6.788;2022-09-09T05:26:00;5.57;;;2.80;;
7845;SDS011;3968;51.424;6.788;2022-09-09T05:28:27;8.73;;;2.70;;
7845;SDS011;3968;51.424;6.788;2022-09-09T05:30:59;7.70;;;2.53;;
7845;SDS011;3968;51.424;6.788;2022-09-09T05:33:30;8.00;;;3.53;;
7845;SDS011;3968;51.424;6.788;2022-09-09T05:36:00;5.50;;;2.50;;
7845;SDS011;3968;51.424;6.788;2022-09-09T05:38:28;7.33;;;2.73;;
7845;SDS011;3968;51.424;6.788;2022-09-09T05:40:55;8.63;;;3.20;;
7845;SDS011;3968;51.424;6.788;2022-09-09T05:43:21;12.90;;;3.73;;
7845;SDS011;3968;51.424;6.788;2022-09-09T05:45:48;8.63;;;3.00;;
7845;SDS011;3968;51.424;6.788;2022-09-09T05:48:23;9.73;;;2.60;;
7845;SDS011;3968;51.424;6.788;2022-09-09T05:50:52;10.53;;;3.33;;
7845;SDS011;3968;51.424;6.788;2022-09-09T05:53:19;7.27;;;3.07;;
7845;SDS011;3968;51.424;6.788;2022-09-09T05:55:45;8.40;;;3.00;;
7845;SDS011;3968;51.424;6.788;2022-09-09T05:58:11;8.13;;;2.90;;
7845;SDS011;3968;51.424;6.788;2022-09-09T06:00:36;7.33;;;3.20;;
7845;SDS011;3968;51.424;6.788;2022-09-09T06:03:03;5.90;;;2.60;;
7845;SDS011;3968;51.424;6.788;2022-09-09T06:05:29;12.20;;;3.20;;
7845;SDS011;3968;51.424;6.788;2022-09-09T06:07:55;6.67;;;2.80;;
7845;SDS011;3968;51.424;6.788;2022-09-09T06:10:21;6.90;;;2.83;;
7845;SDS011;3968;51.424;6.788;2022-09-09T06:12:47;5.07;;;2.30;;
7845;SDS011;3968;51.424;6.788;2022-09-09T06:15:12;10.03;;;2.80;;
7845;SDS011;3968;51.424;6.788;2022-09-09T06:17:38;6.43;;;2.60;;
7845;SDS011;3968;51.424;6.788;2022-09-09T06:20:04;7.57;;;3.40;;
7845;SDS011;3968;51.424;6.788;2022-09-09T06:22:30;7.83;;;2.90;;
7845;SDS011;3968;51.424;6.788;2022-09-09T06:24:56;12.23;;;3.07;;
7845;SDS011;3968;51.424;6.788;2022-09-09T06:27:22;6.43;;;2.80;;
7845;SDS011;3968;51.424;6.788;2022-09-09T06:29:47;9.07;;;2.30;;
7845;SDS011;3968;51.424;6.788;2022-09-09T06:32:13;9.10;;;2.67;;
7845;SDS011;3968;51.424;6.788;2022-09-09T06:34:39;7.17;;;2.70;;
7845;SDS011;3968;51.424;6.788;2022-09-09T06:37:04;10.90;;;2.57;;
7845;SDS011;3968;51.424;6.788;2022-09-09T06:39:31;11.17;;;2.80;;
7845;SDS011;3968;51.424;6.788;2022-09-09T06:41:57;9.43;;;2.57;;
7845;SDS011;3968;51.424;6.788;2022-09-09T06:44:23;10.40;;;2.33;;
7845;SDS011;3968;51.424;6.788;2022-09-09T06:46:51;5.50;;;2.70;;
7845;SDS011;3968;51.424;6.788;2022-09-09T06:49:17;6.20;;;2.70;;
7845;SDS011;3968;51.424;6.788;2022-09-09T06:51:43;8.70;;;2.20;;
7845;SDS011;3968;51.424;6.788;2022-09-09T06:54:09;8.50;;;2.30;;
7845;SDS011;3968;51.424;6.788;2022-09-09T06:56:36;7.23;;;2.70;;
7845;SDS011;3968;51.424;6.788;2022-09-09T06:59:08;8.33;;;2.67;;
7845;SDS011;3968;51.424;6.788;2022-09-09T07:01:35;6.37;;;2.40;;
7845;SDS011;3968;51.424;6.788;2022-09-09T07:04:03;7.87;;;2.70;;
7845;SDS011;3968;51.424;6.788;2022-09-09T07:06:33;8.33;;;2.53;;
7845;SDS011;3968;51.424;6.788;2022-09-09T07:09:00;11.23;;;2.10;;
7845;SDS011;3968;51.424;6.788;2022-09-09T07:11:30;10.57;;;2.10;;
7845;SDS011;3968;51.424;6.788;2022-09-09T07:13:57;5.70;;;2.30;;
7845;SDS011;3968;51.424;6.788;2022-09-09T07:16:24;9.70;;;2.87;;
7845;SDS011;3968;51.424;6.788;2022-09-09T07:18:53;5.57;;;1.80;;
7845;SDS011;3968;51.424;6.788;2022-09-09T07:21:25;9.07;;;1.83;;
7845;SDS011;3968;51.424;6.788;2022-09-09T07:23:52;6.18;;;2.05;;
7845;SDS011;3968;51.424;6.788;2022-09-09T07:26:20;11.87;;;2.30;;
7845;SDS011;3968;51.424;6.788;2022-09-09T07:28:47;7.97;;;2.13;;
7845;SDS011;3968;51.424;6.788;2022-09-09T07:31:20;10.70;;;2.50;;
7845;SDS011;3968;51.424;6.788;2022-09-09T07:33:56;5.73;;;1.80;;
7845;SDS011;3968;51.424;6.788;2022-09-09T07:36:32;11.00;;;2.10;;
7845;SDS011;3968;51.424;6.788;2022-09-09T07:39:01;8.23;;;2.30;;
7845;SDS011;3968;51.424;6.788;2022-09-09T07:41:31;9.00;;;2.10;;
7845;SDS011;3968;51.424;6.788;2022-09-09T07:43:59;5.87;;;1.90;;
7845;SDS011;3968;51.424;6.788;2022-09-09T07:46:28;6.87;;;2.33;;
7845;SDS011;3968;51.424;6.788;2022-09-09T07:48:55;8.67;;;2.03;;
7845;SDS011;3968;51.424;6.788;2022-09-09T07:51:23;8.07;;;2.20;;
7845;SDS011;3968;51.424;6.788;2022-09-09T07:54:00;6.50;;;1.80;;
7845;SDS011;3968;51.424;6.788;2022-09-09T07:56:27;6.83;;;1.90;;
7845;SDS011;3968;51.424;6.788;2022-09-09T07:58:55;9.50;;;1.80;;
7845;SDS011;3968;51.424;6.788;2022-09-09T08:01:23;5.57;;;1.90;;
7845;SDS011;3968;51.424;6.788;2022-09-09T08:04:03;11.23;;;2.00;;
7845;SDS011;3968;51.424;6.788;2022-09-09T08:06:31;6.53;;;2.00;;
7845;SDS011;3968;51.424;6.788;2022-09-09T08:09:00;8.77;;;2.10;;
7845;SDS011;3968;51.424;6.788;2022-09-09T08:11:26;9.20;;;2.00;;
7845;SDS011;3968;51.424;6.788;2022-09-09T08:13:54;4.57;;;2.07;;
7845;SDS011;3968;51.424;6.788;2022-09-09T08:16:22;9.17;;;2.10;;
7845;SDS011;3968;51.424;6.788;2022-09-09T08:18:49;6.13;;;1.80;;
7845;SDS011;3968;51.424;6.788;2022-09-09T08:21:20;4.23;;;1.70;;
7845;SDS011;3968;51.424;6.788;2022-09-09T08:23:49;5.72;;;1.75;;
7845;SDS011;3968;51.424;6.788;2022-09-09T08:26:18;7.65;;;2.30;;
7845;SDS011;3968;51.424;6.788;2022-09-09T08:28:51;3.83;;;1.47;;
7845;SDS011;3968;51.424;6.788;2022-09-09T08:33:44;5.95;;;2.13;;
7845;SDS011;3968;51.424;6.788;2022-09-09T08:36:13;6.03;;;1.67;;
7845;SDS011;3968;51.424;6.788;2022-09-09T08:38:43;9.20;;;2.08;;
7845;SDS011;3968;51.424;6.788;2022-09-09T08:43:47;8.48;;;1.90;;
7845;SDS011;3968;51.424;6.788;2022-09-09T08:46:26;5.82;;;1.77;;
7845;SDS011;3968;51.424;6.788;2022-09-09T08:49:04;6.60;;;1.92;;
7845;SDS011;3968;51.424;6.788;2022-09-09T08:51:41;9.07;;;2.08;;
7845;SDS011;3968;51.424;6.788;2022-09-09T08:54:07;4.88;;;1.42;;
7845;SDS011;3968;51.424;6.788;2022-09-09T08:56:35;7.80;;;1.50;;
7845;SDS011;3968;51.424;6.788;2022-09-09T08:59:01;6.32;;;1.58;;
7845;SDS011;3968;51.424;6.788;2022-09-09T09:01:50;7.88;;;1.98;;
7845;SDS011;3968;51.424;6.788;2022-09-09T09:04:45;7.25;;;1.90;;
7845;SDS011;3968;51.424;6.788;2022-09-09T09:07:48;8.68;;;1.83;;
7845;SDS011;3968;51.424;6.788;2022-09-09T09:20:50;5.30;;;1.70;;
7845;SDS011;3968;51.424;6.788;2022-09-09T09:23:48;5.72;;;1.38;;
7845;SDS011;3968;51.424;6.788;2022-09-09T09:26:21;3.88;;;1.45;;
7845;SDS011;3968;51.424;6.788;2022-09-09T09:28:52;6.55;;;1.98;;
7845;SDS011;3968;51.424;6.788;2022-09-09T09:31:22;6.38;;;1.50;;
7845;SDS011;3968;51.424;6.788;2022-09-09T09:33:54;6.40;;;1.85;;
7845;SDS011;3968;51.424;6.788;2022-09-09T09:36:33;5.70;;;1.80;;
7845;SDS011;3968;51.424;6.788;2022-09-09T09:39:04;5.70;;;1.65;;
7845;SDS011;3968;51.424;6.788;2022-09-09T09:41:34;9.07;;;1.85;;
7845;SDS011;3968;51.424;6.788;2022-09-09T09:44:02;4.20;;;1.50;;
7845;SDS011;3968;51.424;6.788;2022-09-09T09:46:32;6.78;;;2.05;;
7845;SDS011;3968;51.424;6.788;2022-09-09T09:51:31;7.50;;;1.88;;
7845;SDS011;3968;51.424;6.788;2022-09-09T09:56:55;5.43;;;1.70;;
7845;SDS011;3968;51.424;6.788;2022-09-09T09:59:22;5.95;;;1.50;;
7845;SDS011;3968;51.424;6.788;2022-09-09T10:04:45;5.10;;;1.40;;
7845;SDS011;3968;51.424;6.788;2022-09-09T10:07:32;6.38;;;1.23;;
7845;SDS011;3968;51.424;6.788;2022-09-09T10:09:58;4.47;;;1.52;;
7845;SDS011;3968;51.424;6.788;2022-09-09T10:12:29;3.80;;;1.45;;
7845;SDS011;3968;51.424;6.788;2022-09-09T10:42:43;3.22;;;1.10;;
7845;SDS011;3968;51.424;6.788;2022-09-09T10:48:10;5.18;;;1.60;;
7845;SDS011;3968;51.424;6.788;2022-09-09T10:56:37;3.90;;;1.30;;
7845;SDS011;3968;51.424;6.788;2022-09-09T10:59:12;4.95;;;1.23;;
7845;SDS011;3968;51.424;6.788;2022-09-09T11:01:48;3.95;;;1.30;;
7845;SDS011;3968;51.424;6.788;2022-09-09T11:07:01;4.18;;;1.50;;
7845;SDS011;3968;51.424;6.788;2022-09-09T11:09:33;4.15;;;1.13;;
7845;SDS011;3968;51.424;6.788;2022-09-09T11:12:08;4.65;;;1.42;;
7845;SDS011;3968;51.424;6.788;2022-09-09T11:14:51;3.35;;;1.45;;
7845;SDS011;3968;51.424;6.788;2022-09-09T11:17:40;5.43;;;1.40;;
7845;SDS011;3968;51.424;6.788;2022-09-09T11:20:12;3.72;;;1.60;;
7845;SDS011;3968;51.424;6.788;2022-09-09T11:22:48;5.72;;;1.85;;
7845;SDS011;3968;51.424;6.788;2022-09-09T11:25:35;3.35;;;1.27;;
7845;SDS011;3968;51.424;6.788;2022-09-09T11:38:46;3.85;;;1.50;;
7845;SDS011;3968;51.424;6.788;2022-09-09T11:41:16;4.35;;;1.20;;
7845;SDS011;3968;51.424;6.788;2022-09-09T11:43:46;4.32;;;1.33;;
7845;SDS011;3968;51.424;6.788;2022-09-09T11:46:16;6.75;;;1.23;;
7845;SDS011;3968;51.424;6.788;2022-09-09T11:48:59;3.17;;;1.30;;
7845;SDS011;3968;51.424;6.788;2022-09-09T11:51:27;3.17;;;1.40;;
7845;SDS011;3968;51.424;6.788;2022-09-09T11:54:01;2.72;;;0.88;;
7845;SDS011;3968;51.424;6.788;2022-09-09T11:56:47;2.40;;;1.40;;
7845;SDS011;3968;51.424;6.788;2022-09-09T11:59:21;2.80;;;1.10;;
7845;SDS011;3968;51.424;6.788;2022-09-09T12:02:02;2.42;;;1.50;;
7845;SDS011;3968;51.424;6.788;2022-09-09T12:07:05;2.22;;;1.10;;
7845;SDS011;3968;51.424;6.788;2022-09-09T12:12:52;4.13;;;1.63;;
7845;SDS011;3968;51.424;6.788;2022-09-09T12:15:25;4.90;;;1.60;;
7845;SDS011;3968;51.424;6.788;2022-09-09T12:17:54;3.40;;;1.23;;
7845;SDS011;3968;51.424;6.788;2022-09-09T12:20:35;1.90;;;1.10;;
7845;SDS011;3968;51.424;6.788;2022-09-09T12:33:47;6.28;;;1.55;;
7845;SDS011;3968;51.424;6.788;2022-09-09T12:36:16;4.57;;;1.73;;
7845;SDS011;3968;51.424;6.788;2022-09-09T12:39:15;3.05;;;1.40;;
7845;SDS011;3968;51.424;6.788;2022-09-09T12:41:51;4.03;;;1.40;;
7845;SDS011;3968;51.424;6.788;2022-09-09T12:44:22;4.07;;;1.65;;
7845;SDS011;3968;51.424;6.788;2022-09-09T12:46:48;3.08;;;1.73;;
7845;SDS011;3968;51.424;6.788;2022-09-09T12:49:26;5.83;;;2.00;;
7845;SDS011;3968;51.424;6.788;2022-09-09T12:52:01;10.35;;;2.70;;
7845;SDS011;3968;51.424;6.788;2022-09-09T12:54:30;8.47;;;4.20;;
7845;SDS011;3968;51.424;6.788;2022-09-09T12:56:57;8.83;;;4.17;;
7845;SDS011;3968;51.424;6.788;2022-09-09T12:59:23;7.10;;;3.13;;
7845;SDS011;3968;51.424;6.788;2022-09-09T13:01:58;7.53;;;3.00;;
7845;SDS011;3968;51.424;6.788;2022-09-09T13:04:24;3.97;;;2.00;;
7845;SDS011;3968;51.424;6.788;2022-09-09T13:06:50;4.50;;;1.60;;
7845;SDS011;3968;51.424;6.788;2022-09-09T13:09:17;7.23;;;2.10;;
7845;SDS011;3968;51.424;6.788;2022-09-09T13:11:45;13.13;;;2.33;;
7845;SDS011;3968;51.424;6.788;2022-09-09T13:14:27;9.03;;;2.87;;
7845;SDS011;3968;51.424;6.788;2022-09-09T13:16:58;8.03;;;3.43;;
7845;SDS011;3968;51.424;6.788;2022-09-09T13:19:25;10.90;;;3.97;;
7845;SDS011;3968;51.424;6.788;2022-09-09T13:21:54;9.60;;;4.40;;
7845;SDS011;3968;51.424;6.788;2022-09-09T13:26:59;7.70;;;3.13;;
7845;SDS011;3968;51.424;6.788;2022-09-09T13:29:50;5.28;;;2.83;;
7845;SDS011;3968;51.424;6.788;2022-09-09T13:32:19;4.80;;;2.70;;
7845;SDS011;3968;51.424;6.788;2022-09-09T13:34:56;7.13;;;2.47;;
7845;SDS011;3968;51.424;6.788;2022-09-09T13:37:33;4.83;;;2.23;;
7845;SDS011;3968;51.424;6.788;2022-09-09T13:40:01;7.23;;;2.10;;
7845;SDS011;3968;51.424;6.788;2022-09-09T13:42:31;5.63;;;2.53;;
7845;SDS011;3968;51.424;6.788;2022-09-09T13:45:02;5.50;;;2.40;;
7845;SDS011;3968;51.424;6.788;2022-09-09T13:47:32;5.73;;;1.93;;
7845;SDS011;3968;51.424;6.788;2022-09-09T13:52:46;8.30;;;2.25;;
7845;SDS011;3968;51.424;6.788;2022-09-09T13:55:14;7.32;;;1.45;;
7845;SDS011;3968;51.424;6.788;2022-09-09T13:57:39;2.63;;;1.60;;
7845;SDS011;3968;51.424;6.788;2022-09-09T14:00:19;5.15;;;2.05;;
7845;SDS011;3968;51.424;6.788;2022-09-09T14:02:45;2.50;;;1.40;;
7845;SDS011;3968;51.424;6.788;2022-09-09T14:05:12;3.83;;;1.52;;
7845;SDS011;3968;51.424;6.788;2022-09-09T14:07:38;3.55;;;1.77;;
7845;SDS011;3968;51.424;6.788;2022-09-09T14:10:05;4.50;;;1.65;;
7845;SDS011;3968;51.424;6.788;2022-09-09T14:12:31;5.22;;;1.45;;
7845;SDS011;3968;51.424;6.788;2022-09-09T14:14:57;2.72;;;1.30;;
7845;SDS011;3968;51.424;6.788;2022-09-09T14:17:24;2.90;;;1.58;;
7845;SDS011;3968;51.424;6.788;2022-09-09T14:19:54;3.40;;;1.50;;
7845;SDS011;3968;51.424;6.788;2022-09-09T14:22:20;4.70;;;1.80;;
7845;SDS011;3968;51.424;6.788;2022-09-09T14:24:47;4.13;;;2.35;;
7845;SDS011;3968;51.424;6.788;2022-09-09T14:27:13;7.97;;;2.22;;
7845;SDS011;3968;51.424;6.788;2022-09-09T14:29:39;3.92;;;1.75;;
7845;SDS011;3968;51.424;6.788;2022-09-09T14:32:04;6.10;;;1.77;;
7845;SDS011;3968;51.424;6.788;2022-09-09T14:34:30;3.80;;;1.73;;
7845;SDS011;3968;51.424;6.788;2022-09-09T14:36:57;4.50;;;1.35;;
7845;SDS011;3968;51.424;6.788;2022-09-09T14:39:23;11.60;;;2.80;;
7845;SDS011;3968;51.424;6.788;2022-09-09T14:41:49;5.75;;;1.60;;
7845;SDS011;3968;51.424;6.788;2022-09-09T14:44:15;3.60;;;1.30;;
7845;SDS011;3968;51.424;6.788;2022-09-09T14:46:41;3.23;;;1.33;;
7845;SDS011;3968;51.424;6.788;2022-09-09T14:49:07;3.10;;;1.40;;
7845;SDS011;3968;51.424;6.788;2022-09-09T14:51:35;3.17;;;1.23;;
7845;SDS011;3968;51.424;6.788;2022-09-09T14:54:01;4.40;;;1.77;;
7845;SDS011;3968;51.424;6.788;2022-09-09T14:56:29;3.77;;;1.57;;
7845;SDS011;3968;51.424;6.788;2022-09-09T14:58:57;3.67;;;1.50;;
7845;SDS011;3968;51.424;6.788;2022-09-09T15:01:24;3.03;;;1.20;;
7845;SDS011;3968;51.424;6.788;2022-09-09T15:03:54;3.27;;;1.57;;
7845;SDS011;3968;51.424;6.788;2022-09-09T15:06:24;3.20;;;1.90;;
7845;SDS011;3968;51.424;6.788;2022-09-09T15:08:51;2.33;;;1.73;;
7845;SDS011;3968;51.424;6.788;2022-09-09T15:11:18;4.23;;;2.47;;
7845;SDS011;3968;51.424;6.788;2022-09-09T15:13:45;8.70;;;4.17;;
7845;SDS011;3968;51.424;6.788;2022-09-09T15:16:15;5.40;;;2.90;;
7845;SDS011;3968;51.424;6.788;2022-09-09T15:18:43;6.17;;;3.43;;
7845;SDS011;3968;51.424;6.788;2022-09-09T15:21:14;6.37;;;2.90;;
7845;SDS011;3968;51.424;6.788;2022-09-09T15:23:41;6.53;;;2.30;;
7845;SDS011;3968;51.424;6.788;2022-09-09T15:26:08;4.10;;;2.00;;
7845;SDS011;3968;51.424;6.788;2022-09-09T15:28:35;3.30;;;1.87;;
7845;SDS011;3968;51.424;6.788;2022-09-09T15:31:05;5.30;;;1.70;;
7845;SDS011;3968;51.424;6.788;2022-09-09T15:33:32;8.53;;;2.00;;
7845;SDS011;3968;51.424;6.788;2022-09-09T15:35:58;14.97;;;2.17;;
7845;SDS011;3968;51.424;6.788;2022-09-09T15:38:24;2.43;;;1.83;;
7845;SDS011;3968;51.424;6.788;2022-09-09T15:40:53;3.80;;;2.07;;
7845;SDS011;3968;51.424;6.788;2022-09-09T15:43:20;3.43;;;1.60;;
7845;SDS011;3968;51.424;6.788;2022-09-09T15:45:49;4.60;;;1.20;;
7845;SDS011;3968;51.424;6.788;2022-09-09T15:48:19;3.17;;;1.43;;
7845;SDS011;3968;51.424;6.788;2022-09-09T15:51:02;6.83;;;1.47;;
7845;SDS011;3968;51.424;6.788;2022-09-09T15:53:28;4.10;;;0.87;;
7845;SDS011;3968;51.424;6.788;2022-09-09T15:55:56;4.47;;;1.20;;
7845;SDS011;3968;51.424;6.788;2022-09-09T15:58:21;3.23;;;1.40;;
7845;SDS011;3968;51.424;6.788;2022-09-09T16:00:47;1.83;;;1.17;;
7845;SDS011;3968;51.424;6.788;2022-09-09T16:03:12;3.03;;;1.10;;
7845;SDS011;3968;51.424;6.788;2022-09-09T16:05:38;3.43;;;1.50;;
7845;SDS011;3968;51.424;6.788;2022-09-09T16:08:03;2.40;;;1.60;;
7845;SDS011;3968;51.424;6.788;2022-09-09T16:10:29;2.70;;;1.50;;
7845;SDS011;3968;51.424;6.788;2022-09-09T16:12:55;2.30;;;1.20;;
7845;SDS011;3968;51.424;6.788;2022-09-09T16:15:21;4.53;;;1.40;;
7845;SDS011;3968;51.424;6.788;2022-09-09T16:17:48;1.53;;;1.10;;
7845;SDS011;3968;51.424;6.788;2022-09-09T16:20:14;2.80;;;1.20;;
7845;SDS011;3968;51.424;6.788;2022-09-09T16:22:39;2.93;;;1.40;;
7845;SDS011;3968;51.424;6.788;2022-09-09T16:25:05;3.40;;;1.60;;
7845;SDS011;3968;51.424;6.788;2022-09-09T16:27:31;2.03;;;1.20;;
7845;SDS011;3968;51.424;6.788;2022-09-09T16:29:57;3.27;;;1.20;;
7845;SDS011;3968;51.424;6.788;2022-09-09T16:32:22;3.57;;;1.30;;
7845;SDS011;3968;51.424;6.788;2022-09-09T16:34:48;2.63;;;1.30;;
7845;SDS011;3968;51.424;6.788;2022-09-09T16:37:14;1.37;;;1.00;;
7845;SDS011;3968;51.424;6.788;2022-09-09T16:39:39;1.97;;;1.57;;
7845;SDS011;3968;51.424;6.788;2022-09-09T16:42:05;2.30;;;1.55;;
7845;SDS011;3968;51.424;6.788;2022-09-09T16:44:30;3.00;;;1.70;;
7845;SDS011;3968;51.424;6.788;2022-09-09T16:46:56;4.33;;;1.87;;
7845;SDS011;3968;51.424;6.788;2022-09-09T16:49:22;5.20;;;1.70;;
7845;SDS011;3968;51.424;6.788;2022-09-09T16:51:48;2.10;;;1.50;;
7845;SDS011;3968;51.424;6.788;2022-09-09T16:54:18;4.70;;;1.83;;
7845;SDS011;3968;51.424;6.788;2022-09-09T16:56:46;3.10;;;1.75;;
7845;SDS011;3968;51.424;6.788;2022-09-09T16:59:16;3.50;;;1.90;;
7845;SDS011;3968;51.424;6.788;2022-09-09T17:01:44;4.67;;;2.30;;
7845;SDS011;3968;51.424;6.788;2022-09-09T17:04:12;4.27;;;2.00;;
7845;SDS011;3968;51.424;6.788;2022-09-09T17:06:40;6.43;;;2.40;;
7845;SDS011;3968;51.424;6.788;2022-09-09T17:09:10;4.93;;;2.10;;
7845;SDS011;3968;51.424;6.788;2022-09-09T17:11:36;5.10;;;2.60;;
7845;SDS011;3968;51.424;6.788;2022-09-09T17:14:03;4.23;;;2.30;;
7845;SDS011;3968;51.424;6.788;2022-09-09T17:16:30;5.70;;;2.60;;
7845;SDS011;3968;51.424;6.788;2022-09-09T17:18:58;4.90;;;2.00;;
7845;SDS011;3968;51.424;6.788;2022-09-09T17:21:26;6.13;;;2.30;;
7845;SDS011;3968;51.424;6.788;2022-09-09T17:23:53;3.40;;;2.10;;
7845;SDS011;3968;51.424;6.788;2022-09-09T17:26:20;4.27;;;1.70;;
7845;SDS011;3968;51.424;6.788;2022-09-09T17:28:47;5.37;;;2.40;;
7845;SDS011;3968;51.424;6.788;2022-09-09T17:31:14;5.10;;;2.00;;
7845;SDS011;3968;51.424;6.788;2022-09-09T17:33:43;5.33;;;2.73;;
7845;SDS011;3968;51.424;6.788;2022-09-09T17:36:14;2.70;;;1.90;;
7845;SDS011;3968;51.424;6.788;2022-09-09T17:38:42;3.50;;;2.07;;
7845;SDS011;3968;51.424;6.788;2022-09-09T17:41:15;4.30;;;2.30;;
7845;SDS011;3968;51.424;6.788;2022-09-09T17:43:42;4.00;;;2.27;;
7845;SDS011;3968;51.424;6.788;2022-09-09T17:46:13;3.37;;;2.03;;
7845;SDS011;3968;51.424;6.788;2022-09-09T17:48:49;5.77;;;1.90;;
7845;SDS011;3968;51.424;6.788;2022-09-09T17:51:18;5.60;;;2.10;;